createdAt,value
2022-11-23T00:01:15.869Z,3.47
2022-11-23T00:03:44.401Z,4.77
2022-11-23T00:06:12.810Z,3.13
2022-11-23T00:08:41.575Z,3.57
2022-11-23T00:11:09.834Z,3.83
2022-11-23T00:13:40.099Z,3.23
2022-11-23T00:16:09.118Z,2.83
2022-11-23T00:18:38.664Z,15.40
2022-11-23T00:21:08.401Z,3.40
2022-11-23T00:23:37.554Z,2.87
2022-11-23T00:26:06.783Z,3.10
2022-11-23T00:28:38.916Z,3.67
2022-11-23T00:31:07.342Z,4.20
2022-11-23T00:33:35.958Z,4.53
2022-11-23T00:36:11.088Z,4.23
2022-11-23T00:38:39.974Z,4.17
2022-11-23T00:41:10.216Z,5.37
2022-11-23T00:43:38.529Z,4.00
2022-11-23T00:46:10.427Z,3.80
2022-11-23T00:48:39.049Z,4.30
2022-11-23T00:51:10.806Z,3.67
2022-11-23T00:53:40.709Z,3.87
2022-11-23T00:56:09.349Z,4.57
2022-11-23T00:58:38.875Z,3.63
2022-11-23T01:01:09.668Z,3.63
2022-11-23T01:03:39.207Z,3.77
2022-11-23T01:06:10.720Z,3.30
2022-11-23T01:08:39.467Z,18.37
2022-11-23T01:11:09.835Z,3.37
2022-11-23T01:13:38.549Z,3.40
2022-11-23T01:16:09.278Z,3.27
2022-11-23T01:18:38.262Z,4.90
2022-11-23T01:21:08.213Z,3.13
2022-11-23T01:23:36.653Z,3.00
2022-11-23T01:26:09.319Z,3.23
2022-11-23T01:28:39.099Z,3.03
2022-11-23T01:31:08.438Z,3.17
2022-11-23T01:33:37.576Z,4.07
2022-11-23T01:36:13.045Z,3.33
2022-11-23T01:38:41.327Z,3.17
2022-11-23T01:41:13.008Z,4.07
2022-11-23T01:43:41.425Z,3.33
2022-11-23T01:46:11.968Z,3.07
2022-11-23T01:48:43.985Z,3.43
2022-11-23T01:51:15.993Z,3.33
2022-11-23T01:53:45.821Z,3.10
2022-11-23T01:56:17.427Z,4.57
2022-11-23T01:58:49.228Z,3.30
2022-11-23T02:01:17.631Z,3.20
2022-11-23T02:03:48.281Z,2.63
2022-11-23T02:06:20.089Z,2.90
2022-11-23T02:08:49.750Z,2.60
2022-11-23T02:11:18.284Z,2.47
2022-11-23T02:13:48.602Z,2.83
2022-11-23T02:16:18.785Z,3.17
2022-11-23T02:18:49.399Z,2.57
2022-11-23T02:21:22.885Z,2.87
2022-11-23T02:23:58.947Z,2.43
2022-11-23T02:26:30.373Z,2.87
2022-11-23T02:29:02.776Z,2.57
2022-11-23T02:31:32.800Z,2.53
2022-11-23T02:34:01.100Z,2.37
2022-11-23T02:36:41.221Z,2.80
2022-11-23T02:39:12.912Z,2.93
2022-11-23T02:41:44.275Z,2.57
2022-11-23T02:44:25.536Z,2.47
2022-11-23T02:46:54.440Z,2.77
2022-11-23T02:49:22.775Z,2.40
2022-11-23T02:51:52.964Z,2.77
2022-11-23T02:54:21.207Z,2.50
2022-11-23T02:56:50.805Z,2.50
2022-11-23T02:59:20.013Z,2.40
2022-11-23T03:01:48.636Z,2.03
2022-11-23T03:04:16.852Z,1.97
2022-11-23T03:06:46.314Z,3.90
2022-11-23T03:09:14.828Z,2.30
2022-11-23T03:11:43.374Z,1.70
2022-11-23T03:14:13.352Z,3.00
2022-11-23T03:16:48.398Z,1.97
2022-11-23T03:19:19.109Z,1.90
2022-11-23T03:21:48.841Z,2.00
2022-11-23T03:24:17.462Z,1.77
2022-11-23T03:26:47.318Z,2.20
2022-11-23T03:29:25.470Z,2.10
2022-11-23T03:31:55.929Z,2.67
2022-11-23T03:34:24.463Z,2.20
2022-11-23T03:36:53.232Z,2.47
2022-11-23T03:39:22.219Z,1.50
2022-11-23T03:42:10.600Z,2.30
2022-11-23T03:44:40.634Z,1.70
2022-11-23T03:47:08.842Z,2.13
2022-11-23T03:49:37.296Z,1.60
2022-11-23T03:52:06.393Z,2.00
2022-11-23T03:54:34.914Z,1.90
2022-11-23T03:57:03.442Z,1.63
2022-11-23T03:59:34.265Z,1.87
2022-11-23T04:02:03.989Z,2.47
2022-11-23T04:04:37.551Z,1.77
2022-11-23T04:07:10.961Z,1.60
2022-11-23T04:09:48.289Z,1.80
2022-11-23T04:12:39.329Z,1.67
2022-11-23T04:15:09.836Z,2.10
2022-11-23T04:17:39.815Z,2.20
2022-11-23T04:20:09.691Z,2.00
2022-11-23T04:22:38.284Z,14.83
2022-11-23T04:25:07.315Z,1.60
2022-11-23T04:27:36.239Z,1.77
2022-11-23T04:30:05.917Z,1.90
2022-11-23T04:32:34.400Z,2.00
2022-11-23T04:35:06.207Z,1.70
2022-11-23T04:37:38.885Z,2.30
2022-11-23T04:40:08.512Z,2.67
2022-11-23T04:42:42.243Z,2.00
2022-11-23T04:45:11.681Z,1.57
2022-11-23T04:47:39.926Z,2.07
2022-11-23T04:50:14.417Z,1.83
2022-11-23T04:52:46.476Z,1.63
2022-11-23T04:55:19.692Z,2.03
2022-11-23T04:57:56.528Z,1.80
2022-11-23T05:00:28.335Z,1.67
2022-11-23T05:03:00.805Z,2.30
2022-11-23T05:05:34.053Z,13.97
2022-11-23T05:08:04.183Z,2.53
2022-11-23T05:10:47.046Z,3.73
2022-11-23T05:13:15.854Z,2.10
2022-11-23T05:15:45.474Z,4.10
2022-11-23T05:18:18.044Z,2.03
2022-11-23T05:20:47.956Z,2.30
2022-11-23T05:23:18.008Z,2.33
2022-11-23T05:25:47.597Z,2.20
2022-11-23T05:28:39.642Z,3.00
2022-11-23T05:31:11.188Z,2.17
2022-11-23T05:33:39.939Z,2.20
2022-11-23T05:36:13.873Z,2.10
2022-11-23T05:38:43.558Z,2.53
2022-11-23T05:41:16.946Z,2.17
2022-11-23T05:43:46.542Z,1.90
2022-11-23T05:46:20.412Z,5.70
2022-11-23T05:48:48.892Z,999.90
2022-11-23T05:51:18.581Z,2.70
2022-11-23T05:53:49.448Z,2.70
2022-11-23T05:56:29.587Z,2.17
2022-11-23T05:59:06.537Z,1.60
2022-11-23T06:01:37.132Z,2.20
2022-11-23T06:04:07.757Z,2.23
2022-11-23T06:06:44.941Z,2.23
2022-11-23T06:09:13.432Z,3.20
2022-11-23T06:11:45.716Z,2.57
2022-11-23T06:14:18.237Z,2.93
2022-11-23T06:16:48.382Z,2.43
2022-11-23T06:19:33.323Z,4.10
2022-11-23T06:22:04.524Z,2.23
2022-11-23T06:24:37.594Z,2.07
2022-11-23T06:27:28.460Z,1.73
2022-11-23T06:29:56.949Z,2.00
2022-11-23T06:32:27.934Z,2.00
2022-11-23T06:35:00.740Z,2.00
2022-11-23T06:37:33.296Z,1.90
2022-11-23T06:40:02.474Z,2.50
2022-11-23T06:42:38.884Z,1.63
2022-11-23T06:45:10.967Z,2.13
2022-11-23T06:47:39.680Z,2.13
2022-11-23T06:50:09.325Z,2.47
2022-11-23T06:52:40.031Z,1.60
2022-11-23T06:55:08.891Z,2.70
2022-11-23T06:57:37.234Z,2.50
2022-11-23T07:00:06.772Z,3.40
2022-11-23T07:02:38.878Z,2.27
2022-11-23T07:05:07.932Z,2.87
2022-11-23T07:07:37.157Z,2.23
2022-11-23T07:10:14.177Z,2.50
2022-11-23T07:12:46.848Z,2.63
2022-11-23T07:15:17.194Z,2.93
2022-11-23T07:17:46.692Z,2.57
2022-11-23T07:20:15.524Z,2.70
2022-11-23T07:22:44.054Z,3.63
2022-11-23T07:25:16.662Z,3.00
2022-11-23T07:27:45.234Z,2.30
2022-11-23T07:30:14.371Z,2.60
2022-11-23T07:32:42.657Z,2.83
2022-11-23T07:35:11.381Z,2.13
2022-11-23T07:37:41.332Z,1.97
2022-11-23T07:40:10.542Z,2.13
2022-11-23T07:42:44.934Z,2.17
2022-11-23T07:45:14.412Z,2.00
2022-11-23T07:47:46.759Z,2.10
2022-11-23T07:50:15.370Z,2.33
2022-11-23T07:52:43.494Z,2.00
2022-11-23T07:55:11.745Z,2.17
2022-11-23T07:57:41.291Z,2.20
2022-11-23T08:00:10.900Z,3.20
2022-11-23T08:02:57.820Z,2.23
2022-11-23T08:05:27.143Z,1.97
2022-11-23T08:07:59.850Z,2.90
2022-11-23T08:10:28.380Z,3.17
2022-11-23T08:12:59.759Z,2.53
2022-11-23T08:15:29.168Z,2.13
2022-11-23T08:17:58.081Z,3.03
2022-11-23T08:20:26.852Z,2.97
2022-11-23T08:22:56.031Z,2.70
2022-11-23T08:25:24.767Z,2.80
2022-11-23T08:27:56.400Z,2.80
2022-11-23T08:30:26.625Z,3.20
2022-11-23T08:32:54.815Z,3.40
2022-11-23T08:35:23.447Z,3.00
2022-11-23T08:37:51.660Z,2.93
2022-11-23T08:40:25.131Z,2.87
2022-11-23T08:42:54.201Z,2.67
2022-11-23T08:45:22.738Z,3.03
2022-11-23T08:47:53.045Z,2.83
2022-11-23T08:50:21.497Z,2.50
2022-11-23T08:52:49.651Z,2.80
2022-11-23T08:55:18.140Z,3.60
2022-11-23T08:57:46.291Z,2.40
2022-11-23T09:00:15.818Z,2.63
2022-11-23T09:02:43.966Z,2.80
2022-11-23T09:05:13.446Z,2.43
2022-11-23T09:07:41.685Z,2.83
2022-11-23T09:10:15.049Z,2.47
2022-11-23T09:12:46.297Z,2.50
2022-11-23T09:15:14.689Z,2.67
2022-11-23T09:17:43.162Z,2.57
2022-11-23T09:20:13.619Z,2.10
2022-11-23T09:22:41.733Z,2.33
2022-11-23T09:25:10.468Z,2.50
2022-11-23T09:27:38.731Z,2.83
2022-11-23T09:30:08.225Z,2.20
2022-11-23T09:32:36.788Z,2.40
2022-11-23T09:35:05.905Z,2.30
2022-11-23T09:37:35.506Z,2.73
2022-11-23T09:40:03.825Z,2.50
2022-11-23T09:42:46.733Z,2.30
2022-11-23T09:45:23.929Z,1.80
2022-11-23T09:48:07.300Z,1.60
2022-11-23T09:50:46.485Z,2.30
2022-11-23T09:53:20.120Z,1.87
2022-11-23T09:55:49.902Z,2.30
2022-11-23T09:58:20.915Z,2.10
2022-11-23T10:00:51.982Z,2.00
2022-11-23T10:03:20.431Z,2.10
2022-11-23T10:06:02.119Z,2.23
2022-11-23T10:08:44.214Z,2.10
2022-11-23T10:11:36.165Z,2.60
2022-11-23T10:14:15.850Z,2.00
2022-11-23T10:16:50.845Z,2.10
2022-11-23T10:19:27.232Z,2.43
2022-11-23T10:22:06.593Z,2.20
2022-11-23T10:24:41.812Z,2.17
2022-11-23T10:27:14.931Z,2.43
2022-11-23T10:29:44.241Z,2.20
2022-11-23T10:32:26.147Z,1.90
2022-11-23T10:35:04.702Z,2.70
2022-11-23T10:37:34.332Z,1.70
2022-11-23T10:40:03.865Z,1.97
2022-11-23T10:42:36.931Z,2.10
2022-11-23T10:45:06.680Z,1.73
2022-11-23T10:47:38.704Z,1.93
2022-11-23T10:50:25.135Z,2.00
2022-11-23T10:52:56.211Z,1.60
2022-11-23T10:55:29.531Z,2.10
2022-11-23T10:57:58.353Z,1.80
2022-11-23T11:00:30.899Z,1.70
2022-11-23T11:03:00.438Z,1.87
2022-11-23T11:06:07.073Z,1.67
2022-11-23T11:08:22.883Z,2.23
2022-11-23T11:11:00.147Z,1.77
2022-11-23T11:13:31.098Z,1.70
2022-11-23T11:16:01.308Z,1.50
2022-11-23T11:18:31.866Z,1.80
2022-11-23T11:21:03.293Z,1.27
2022-11-23T11:23:33.415Z,1.70
2022-11-23T11:26:11.228Z,1.60
2022-11-23T11:28:43.542Z,1.47
2022-11-23T11:31:43.224Z,1.40
2022-11-23T11:34:23.359Z,1.10
2022-11-23T11:36:58.799Z,1.63
2022-11-23T11:39:33.033Z,1.53
2022-11-23T11:42:08.441Z,1.53
2022-11-23T11:44:41.707Z,2.57
2022-11-23T11:47:21.197Z,1.33
2022-11-23T11:49:50.309Z,1.40
2022-11-23T11:52:25.964Z,1.20
2022-11-23T11:55:00.562Z,1.53
2022-11-23T11:57:37.080Z,2.00
2022-11-23T12:00:12.348Z,1.50
2022-11-23T12:02:50.694Z,1.27
2022-11-23T12:05:25.375Z,1.30
2022-11-23T12:08:02.877Z,1.10
2022-11-23T12:10:37.805Z,1.73
2022-11-23T12:13:10.394Z,1.60
2022-11-23T12:15:51.124Z,1.50
2022-11-23T12:18:47.743Z,1.30
2022-11-23T12:21:29.242Z,1.33
2022-11-23T12:24:06.566Z,1.50
2022-11-23T12:26:48.105Z,1.60
2022-11-23T12:29:46.074Z,1.40
2022-11-23T12:32:25.171Z,1.33
2022-11-23T12:35:13.084Z,1.30
2022-11-23T12:37:53.593Z,1.30
2022-11-23T12:40:39.070Z,23.37
2022-11-23T12:43:14.830Z,999.90
2022-11-23T12:45:56.970Z,999.90
2022-11-23T12:48:38.641Z,999.90
2022-11-23T12:51:22.084Z,735.20
2022-11-23T12:53:59.711Z,1.63
2022-11-23T12:56:49.628Z,2.00
2022-11-23T12:59:18.713Z,1.67
2022-11-23T13:01:52.384Z,1.80
2022-11-23T13:04:53.797Z,1.60
2022-11-23T13:07:53.583Z,1.63
2022-11-23T13:10:31.648Z,1.67
2022-11-23T13:13:22.985Z,1.80
2022-11-23T13:16:17.777Z,1.37
2022-11-23T13:19:04.986Z,1.50
2022-11-23T13:21:38.585Z,1.83
2022-11-23T13:24:25.906Z,1.80
2022-11-23T13:27:31.440Z,1.77
2022-11-23T13:30:08.367Z,128.50
2022-11-23T13:32:52.513Z,6.70
2022-11-23T13:35:59.252Z,9.33
2022-11-23T13:38:42.146Z,1.93
2022-11-23T13:41:56.037Z,1.90
2022-11-23T13:44:27.870Z,1.67
2022-11-23T13:47:08.586Z,1.80
2022-11-23T13:49:42.579Z,1.90
2022-11-23T13:52:32.593Z,1.60
2022-11-23T13:55:17.929Z,1.97
2022-11-23T13:58:07.761Z,1.73
2022-11-23T14:00:49.916Z,1.97
2022-11-23T14:03:50.904Z,1.60
2022-11-23T14:06:36.249Z,2.43
2022-11-23T14:09:14.906Z,2.07
2022-11-23T14:11:55.295Z,2.33
2022-11-23T14:14:26.210Z,4.17
2022-11-23T14:17:19.256Z,2.30
2022-11-23T14:20:14.185Z,2.20
2022-11-23T14:22:54.480Z,2.50
2022-11-23T14:25:41.511Z,2.20
2022-11-23T14:28:22.319Z,2.37
2022-11-23T14:31:07.477Z,2.33
2022-11-23T14:33:45.567Z,1.77
2022-11-23T14:36:26.595Z,2.07
2022-11-23T14:39:06.572Z,2.37
2022-11-23T14:41:37.086Z,2.30
2022-11-23T14:44:07.042Z,2.43
2022-11-23T14:46:35.404Z,2.13
2022-11-23T14:49:07.426Z,2.13
2022-11-23T14:51:37.035Z,2.30
2022-11-23T14:54:10.573Z,2.40
2022-11-23T14:56:43.963Z,2.97
2022-11-23T14:59:22.176Z,2.57
2022-11-23T15:01:53.349Z,2.23
2022-11-23T15:04:26.650Z,2.17
2022-11-23T15:06:59.182Z,2.60
2022-11-23T15:09:50.788Z,2.47
2022-11-23T15:12:25.573Z,2.63
2022-11-23T15:14:57.291Z,2.20
2022-11-23T15:17:26.025Z,2.37
2022-11-23T15:19:56.217Z,2.73
2022-11-23T15:22:25.651Z,2.60
2022-11-23T15:24:54.394Z,2.20
2022-11-23T15:27:28.701Z,2.30
2022-11-23T15:29:58.710Z,2.33
2022-11-23T15:32:32.219Z,2.03
2022-11-23T15:35:04.497Z,2.57
2022-11-23T15:37:33.718Z,2.13
2022-11-23T15:40:02.228Z,2.37
2022-11-23T15:42:32.347Z,2.73
2022-11-23T15:45:00.708Z,2.30
2022-11-23T15:47:31.199Z,2.97
2022-11-23T15:50:02.338Z,2.80
2022-11-23T15:52:36.056Z,2.73
2022-11-23T15:55:09.755Z,3.17
2022-11-23T15:57:41.406Z,2.50
2022-11-23T16:00:23.010Z,3.00
2022-11-23T16:02:52.202Z,3.20
2022-11-23T16:05:23.562Z,3.00
2022-11-23T16:07:54.143Z,3.43
2022-11-23T16:10:24.692Z,3.00
2022-11-23T16:12:55.967Z,2.70
2022-11-23T16:15:44.358Z,3.43
2022-11-23T16:18:22.721Z,3.20
2022-11-23T16:20:54.202Z,3.20
2022-11-23T16:23:24.367Z,3.10
2022-11-23T16:25:59.397Z,3.93
2022-11-23T16:28:33.622Z,3.47
2022-11-23T16:31:02.254Z,4.00
2022-11-23T16:33:31.281Z,3.67
2022-11-23T16:35:59.464Z,3.80
2022-11-23T16:38:27.704Z,4.30
2022-11-23T16:40:56.473Z,3.80
2022-11-23T16:43:24.868Z,4.17
2022-11-23T16:45:55.866Z,4.50
2022-11-23T16:48:43.225Z,4.20
2022-11-23T16:51:14.579Z,4.40
2022-11-23T16:54:12.616Z,4.47
2022-11-23T16:56:33.342Z,5.00
2022-11-23T16:59:01.880Z,4.50
2022-11-23T17:01:32.663Z,4.37
2022-11-23T17:04:01.170Z,4.07
2022-11-23T17:06:29.510Z,4.37
2022-11-23T17:09:04.685Z,4.87
2022-11-23T17:11:38.711Z,4.53
2022-11-23T17:14:07.992Z,4.97
2022-11-23T17:16:37.624Z,5.07
2022-11-23T17:19:10.969Z,4.63
2022-11-23T17:21:39.353Z,4.63
2022-11-23T17:24:07.925Z,4.33
2022-11-23T17:26:38.768Z,4.83
2022-11-23T17:29:11.892Z,4.67
2022-11-23T17:31:43.431Z,4.73
2022-11-23T17:34:12.270Z,4.43
2022-11-23T17:36:40.876Z,5.07
2022-11-23T17:39:10.717Z,4.73
2022-11-23T17:41:39.099Z,5.37
2022-11-23T17:44:10.313Z,5.10
2022-11-23T17:46:39.151Z,4.53
2022-11-23T17:49:14.026Z,5.80
2022-11-23T17:51:43.225Z,6.10
2022-11-23T17:54:11.571Z,6.40
2022-11-23T17:56:40.097Z,7.00
2022-11-23T17:59:08.801Z,6.47
2022-11-23T18:01:37.116Z,5.93
2022-11-23T18:04:07.413Z,5.50
2022-11-23T18:06:37.152Z,6.30
2022-11-23T18:09:06.778Z,5.93
2022-11-23T18:11:34.951Z,5.40
2022-11-23T18:14:04.218Z,6.33
2022-11-23T18:16:33.211Z,8.10
2022-11-23T18:19:01.382Z,7.27
2022-11-23T18:21:29.668Z,6.27
2022-11-23T18:24:04.271Z,6.40
2022-11-23T18:26:33.529Z,5.50
2022-11-23T18:29:01.786Z,5.40
2022-11-23T18:31:30.259Z,5.70
2022-11-23T18:33:58.518Z,6.23
2022-11-23T18:36:27.117Z,6.20
2022-11-23T18:38:55.361Z,6.50
2022-11-23T18:41:25.406Z,6.87
2022-11-23T18:43:53.812Z,5.53
2022-11-23T18:46:22.177Z,7.47
2022-11-23T18:48:51.507Z,10.10
2022-11-23T18:51:19.909Z,7.97
2022-11-23T18:53:49.996Z,6.83
2022-11-23T18:56:19.374Z,6.67
2022-11-23T18:58:51.231Z,5.90
2022-11-23T19:01:21.255Z,6.00
2022-11-23T19:03:51.317Z,6.13
2022-11-23T19:06:21.952Z,6.23
2022-11-23T19:08:51.320Z,7.07
2022-11-23T19:11:21.831Z,6.33
2022-11-23T19:13:53.202Z,6.73
2022-11-23T19:16:24.282Z,7.47
2022-11-23T19:18:55.602Z,6.43
2022-11-23T19:21:25.635Z,6.53
2022-11-23T19:23:55.611Z,103.77
2022-11-23T19:26:25.217Z,8.53
2022-11-23T19:28:55.918Z,6.63
2022-11-23T19:31:26.625Z,6.67
2022-11-23T19:33:57.798Z,6.20
2022-11-23T19:36:26.857Z,5.97
2022-11-23T19:38:57.299Z,5.47
2022-11-23T19:41:30.143Z,5.43
2022-11-23T19:44:01.494Z,5.50
2022-11-23T19:46:30.747Z,6.83
2022-11-23T19:48:59.648Z,7.20
2022-11-23T19:51:29.263Z,6.80
2022-11-23T19:53:58.265Z,6.53
2022-11-23T19:56:28.922Z,6.23
2022-11-23T19:58:58.926Z,5.67
2022-11-23T20:01:31.984Z,6.23
2022-11-23T20:04:08.569Z,5.10
2022-11-23T20:06:42.191Z,5.90
2022-11-23T20:09:12.403Z,5.67
2022-11-23T20:11:43.879Z,6.53
2022-11-23T20:14:15.476Z,6.27
2022-11-23T20:16:45.056Z,4.80
2022-11-23T20:19:13.291Z,4.13
2022-11-23T20:21:41.501Z,5.13
2022-11-23T20:24:14.299Z,6.30
2022-11-23T20:26:43.793Z,5.00
2022-11-23T20:29:13.695Z,5.07
2022-11-23T20:31:42.089Z,5.07
2022-11-23T20:34:16.783Z,4.43
2022-11-23T20:36:48.046Z,4.73
2022-11-23T20:39:16.460Z,5.33
2022-11-23T20:41:45.164Z,4.37
2022-11-23T20:44:14.979Z,4.50
2022-11-23T20:49:34.029Z,3.90
2022-11-23T20:52:02.800Z,6.10
2022-11-23T20:54:32.996Z,6.30
2022-11-23T20:57:01.368Z,5.27
2022-11-23T20:59:29.984Z,4.30
2022-11-23T21:01:58.299Z,3.77
2022-11-23T21:04:26.976Z,4.70
2022-11-23T21:06:56.697Z,3.60
2022-11-23T21:09:24.931Z,4.80
2022-11-23T21:12:10.962Z,4.33
2022-11-23T21:14:39.583Z,4.00
2022-11-23T21:17:08.020Z,4.03
2022-11-23T21:19:37.828Z,3.43
2022-11-23T21:22:10.322Z,4.73
2022-11-23T21:24:38.803Z,4.00
2022-11-23T21:27:09.992Z,3.07
2022-11-23T21:29:38.275Z,999.90
2022-11-23T21:32:07.375Z,999.90
2022-11-23T21:34:36.738Z,999.90
2022-11-23T21:37:05.862Z,999.90
2022-11-23T21:39:35.888Z,999.90
2022-11-23T21:42:04.365Z,999.90
2022-11-23T21:44:33.046Z,999.90
2022-11-23T21:47:01.442Z,999.90
2022-11-23T21:49:29.775Z,999.90
2022-11-23T21:51:58.005Z,999.90
2022-11-23T21:54:26.177Z,999.90
2022-11-23T21:56:55.908Z,999.90
2022-11-23T21:59:24.800Z,999.90
2022-11-23T22:01:57.166Z,999.90
2022-11-23T22:04:25.717Z,999.90
2022-11-23T22:06:53.938Z,80.40
2022-11-23T22:09:22.102Z,245.03
2022-11-23T22:11:50.468Z,4.20
2022-11-23T22:14:20.567Z,4.47
2022-11-23T22:16:50.647Z,3.60
2022-11-23T22:19:19.448Z,3.50
2022-11-23T22:21:48.187Z,3.63
2022-11-23T22:24:17.755Z,3.90
2022-11-23T22:26:47.875Z,3.47
2022-11-23T22:29:16.811Z,3.57
2022-11-23T22:31:46.491Z,3.00
2022-11-23T22:34:15.902Z,3.40
2022-11-23T22:36:44.143Z,3.43
2022-11-23T22:39:12.611Z,4.47
2022-11-23T22:41:41.026Z,4.07
2022-11-23T22:44:11.459Z,4.20
2022-11-23T22:46:40.900Z,4.07
2022-11-23T22:49:10.924Z,3.97
2022-11-23T22:51:39.162Z,3.40
2022-11-23T22:54:07.460Z,4.37
2022-11-23T22:56:35.635Z,4.60
2022-11-23T22:59:04.255Z,3.80
2022-11-23T23:01:32.964Z,2.80
2022-11-23T23:04:03.015Z,4.50
2022-11-23T23:06:34.929Z,3.23
2022-11-23T23:09:06.108Z,3.63
2022-11-23T23:11:35.453Z,3.97
2022-11-23T23:14:03.850Z,3.70
2022-11-23T23:16:32.248Z,2.77
2022-11-23T23:19:01.017Z,3.10
2022-11-23T23:21:30.208Z,3.27
2022-11-23T23:24:02.172Z,3.10
2022-11-23T23:26:30.855Z,2.87
2022-11-23T23:29:00.882Z,4.17
2022-11-23T23:31:30.939Z,4.07
2022-11-23T23:34:01.064Z,3.23
2022-11-23T23:36:32.579Z,3.43
2022-11-23T23:39:05.942Z,2.87
2022-11-23T23:41:34.755Z,3.13
2022-11-23T23:44:02.997Z,2.60
2022-11-23T23:46:31.402Z,2.40
2022-11-23T23:49:00.687Z,2.93
2022-11-23T23:51:28.942Z,2.27
2022-11-23T23:53:58.948Z,2.73
2022-11-23T23:56:30.027Z,2.33
2022-11-23T23:58:59.187Z,1.90
